Ever Best — 3FWT8 — position and weather

sailwx.info

Track history (hours):
 
Tides and Currents Weather Stations Pressure Air Temp Water Temp Dewpoint Dewpoint Depression Visibility Wind Speed Wind Dir Waves Ship Positions

Ever Best

Last reported at 2018-Jul-05 22:54 UTC. Time now 2018-Aug-19 15:21 UTC.
Position N 01°29' E 103°08'.
Warning: this ship's position is 44 days out of date.

Length 229 m; draft 14.1 m.

Type: Cargo ship. MMSI: 355173000.

Date/timePositionNaut miles runAvg speedWind from/ knotsBaromVisibWave heightAir tempDewpointWater temp
2018-Jul-05 22:54N 01°29' E 103°08'812.3
2018-Jul-05 22:16N 01°24' E 103°14'312.1
2018-Jul-05 21:59N 01°22' E 103°16'612.0
2018-Jul-05 21:30N 01°18' E 103°21'611.2
2018-Jul-05 20:59N 01°14' E 103°25'511.3
2018-Jul-05 20:30N 01°13' E 103°31'611.1
2018-Jul-05 20:00N 01°12' E 103°36'611.6
2018-Jul-05 19:30N 01°10' E 103°41'5 9.7
2018-Jul-05 19:00N 01°10' E 103°46'612.2
2018-Jul-05 18:30N 01°12' E 103°52'510.5
2018-Jul-05 18:00N 01°15' E 103°56'3 6.4
2018-Jul-05 17:30N 01°17' E 103°59'1 1.2
2018-Jul-05 16:55N 01°17' E 103°59'0 0.0
2018-Jul-05 16:30N 01°17' E 103°59'0 0.0
2018-Jul-05 15:57N 01°17' E 103°59'0 0.0
2018-Jul-05 15:30N 01°17' E 103°59'0 0.1
2018-Jul-05 14:58N 01°17' E 103°59'0 0.1
2018-Jul-05 13:48N 01°17' E 103°59'0 0.0
2018-Jul-05 13:28N 01°17' E 103°59'0 0.0
2018-Jul-05 12:58N 01°17' E 103°59'0 0.0
2018-Jul-05 12:30N 01°17' E 103°59'0 0.1
2018-Jul-05 12:00N 01°17' E 103°59'0 0.0
2018-Jul-05 11:28N 01°17' E 103°59'0 0.1
2018-Jul-05 10:52N 01°17' E 103°59'0 0.0
2018-Jul-05 10:16N 01°17' E 103°59'0 0.2
2018-Jul-05 09:58N 01°17' E 103°59'0 0.0
2018-Jul-05 09:25N 01°17' E 103°59'0 0.0
2018-Jul-05 08:58N 01°17' E 103°59'0 0.0
2018-Jul-05 08:30N 01°17' E 103°59'0 0.0
2018-Jul-05 07:57N 01°17' E 103°59'0 0.3
2018-Jul-05 07:16N 01°17' E 103°59'0 0.2
2018-Jul-05 06:54N 01°17' E 103°59'1 1.3
2018-Jul-05 06:30N 01°17' E 103°59'1 1.8
2018-Jul-05 06:00N 01°16' E 103°59'2 3.9
2018-Jul-05 05:30N 01°16' E 104°01'3 5.8
2018-Jul-05 04:59N 01°17' E 104°04'4 8.1
2018-Jul-05 04:30N 01°17' E 104°08'611.0
2018-Jul-05 03:59N 01°18' E 104°14'610.7
2018-Jul-05 03:28N 01°19' E 104°19'711.1
2018-Jul-05 02:50N 01°24' E 104°25'310.3
2018-Jul-05 02:30N 01°26' E 104°27'  
2018-Jun-28 23:03N 23°16' E 117°31'110.1
2018-Jun-28 23:00N 23°16' E 117°31'510.5
2018-Jun-28 22:29N 23°21' E 117°34'510.7
2018-Jun-28 22:00N 23°25' E 117°37'511.1
2018-Jun-28 21:30N 23°29' E 117°42'611.2
2018-Jun-28 21:01N 23°32' E 117°46'610.9
2018-Jun-28 20:30N 23°36' E 117°51'611.4
2018-Jun-28 20:00N 23°40' E 117°55'611.5
2018-Jun-28 19:30N 23°43' E 118°01'611.1
2018-Jun-28 19:01N 23°47' E 118°05'611.3
2018-Jun-28 18:30N 23°51' E 118°10'611.3
2018-Jun-28 18:00N 23°54' E 118°14'611.3
2018-Jun-28 17:30N 23°58' E 118°19'511.0
2018-Jun-28 17:01N 24°02' E 118°23'510.9
2018-Jun-28 16:30N 24°06' E 118°27'511.0
2018-Jun-28 16:00N 24°09' E 118°32'510.9
2018-Jun-28 15:30N 24°13' E 118°36'510.6
2018-Jun-28 15:01N 24°16' E 118°41'510.2
2018-Jun-28 14:30N 24°20' E 118°45'5 9.7
2018-Jun-28 14:00N 24°24' E 118°49'5 9.8
2018-Jun-28 13:30N 24°27' E 118°53'5 9.5
2018-Jun-28 13:00N 24°30' E 118°57'5 9.3
2018-Jun-28 12:30N 24°33' E 119°01'9 9.0
2018-Jun-28 11:30N 24°39' E 119°08'19 8.7
2018-Jun-28 09:22N 24°51' E 119°24'4 8.6
2018-Jun-28 08:54N 24°54' E 119°27'4 8.8
2018-Jun-28 08:25N 24°56' E 119°30'469 9.8
2018-Jun-26 08:28N 30°49' E 125°20'  
Track history (hours):
 
Tides and Currents Weather Stations Pressure Air Temp Water Temp Dewpoint Dewpoint Depression Visibility Wind Speed Wind Dir Waves Ship Positions

Ever Best

Last reported at 2018-Jul-05 22:54 UTC. Time now 2018-Aug-19 15:21 UTC.
Position N 01°29' E 103°08'.
Warning: this ship's position is 44 days out of date.

Length 229 m; draft 14.1 m.

Type: Cargo ship. MMSI: 355173000.

Date/timePositionNaut miles runAvg speedWind from/ knotsBaromVisibWave heightAir tempDewpointWater temp
2018-Jul-05 22:54N 01°29' E 103°08'812.3
2018-Jul-05 22:16N 01°24' E 103°14'312.1
2018-Jul-05 21:59N 01°22' E 103°16'612.0
2018-Jul-05 21:30N 01°18' E 103°21'611.2
2018-Jul-05 20:59N 01°14' E 103°25'511.3
2018-Jul-05 20:30N 01°13' E 103°31'611.1
2018-Jul-05 20:00N 01°12' E 103°36'611.6
2018-Jul-05 19:30N 01°10' E 103°41'5 9.7
2018-Jul-05 19:00N 01°10' E 103°46'612.2
2018-Jul-05 18:30N 01°12' E 103°52'510.5
2018-Jul-05 18:00N 01°15' E 103°56'3 6.4
2018-Jul-05 17:30N 01°17' E 103°59'1 1.2
2018-Jul-05 16:55N 01°17' E 103°59'0 0.0
2018-Jul-05 16:30N 01°17' E 103°59'0 0.0
2018-Jul-05 15:57N 01°17' E 103°59'0 0.0
2018-Jul-05 15:30N 01°17' E 103°59'0 0.1
2018-Jul-05 14:58N 01°17' E 103°59'0 0.1
2018-Jul-05 13:48N 01°17' E 103°59'0 0.0
2018-Jul-05 13:28N 01°17' E 103°59'0 0.0
2018-Jul-05 12:58N 01°17' E 103°59'0 0.0
2018-Jul-05 12:30N 01°17' E 103°59'0 0.1
2018-Jul-05 12:00N 01°17' E 103°59'0 0.0
2018-Jul-05 11:28N 01°17' E 103°59'0 0.1
2018-Jul-05 10:52N 01°17' E 103°59'0 0.0
2018-Jul-05 10:16N 01°17' E 103°59'0 0.2
2018-Jul-05 09:58N 01°17' E 103°59'0 0.0
2018-Jul-05 09:25N 01°17' E 103°59'0 0.0
2018-Jul-05 08:58N 01°17' E 103°59'0 0.0
2018-Jul-05 08:30N 01°17' E 103°59'0 0.0
2018-Jul-05 07:57N 01°17' E 103°59'0 0.3
2018-Jul-05 07:16N 01°17' E 103°59'0 0.2
2018-Jul-05 06:54N 01°17' E 103°59'1 1.3
2018-Jul-05 06:30N 01°17' E 103°59'1 1.8
2018-Jul-05 06:00N 01°16' E 103°59'2 3.9
2018-Jul-05 05:30N 01°16' E 104°01'3 5.8
2018-Jul-05 04:59N 01°17' E 104°04'4 8.1
2018-Jul-05 04:30N 01°17' E 104°08'611.0
2018-Jul-05 03:59N 01°18' E 104°14'610.7
2018-Jul-05 03:28N 01°19' E 104°19'711.1
2018-Jul-05 02:50N 01°24' E 104°25'310.3
2018-Jul-05 02:30N 01°26' E 104°27'  
2018-Jun-28 23:03N 23°16' E 117°31'110.1
2018-Jun-28 23:00N 23°16' E 117°31'510.5
2018-Jun-28 22:29N 23°21' E 117°34'510.7
2018-Jun-28 22:00N 23°25' E 117°37'511.1
2018-Jun-28 21:30N 23°29' E 117°42'611.2
2018-Jun-28 21:01N 23°32' E 117°46'610.9
2018-Jun-28 20:30N 23°36' E 117°51'611.4
2018-Jun-28 20:00N 23°40' E 117°55'611.5
2018-Jun-28 19:30N 23°43' E 118°01'611.1
2018-Jun-28 19:01N 23°47' E 118°05'611.3
2018-Jun-28 18:30N 23°51' E 118°10'611.3
2018-Jun-28 18:00N 23°54' E 118°14'611.3
2018-Jun-28 17:30N 23°58' E 118°19'511.0
2018-Jun-28 17:01N 24°02' E 118°23'510.9
2018-Jun-28 16:30N 24°06' E 118°27'511.0
2018-Jun-28 16:00N 24°09' E 118°32'510.9
2018-Jun-28 15:30N 24°13' E 118°36'510.6
2018-Jun-28 15:01N 24°16' E 118°41'510.2
2018-Jun-28 14:30N 24°20' E 118°45'5 9.7
2018-Jun-28 14:00N 24°24' E 118°49'5 9.8
2018-Jun-28 13:30N 24°27' E 118°53'5 9.5
2018-Jun-28 13:00N 24°30' E 118°57'5 9.3
2018-Jun-28 12:30N 24°33' E 119°01'9 9.0
2018-Jun-28 11:30N 24°39' E 119°08'19 8.7
2018-Jun-28 09:22N 24°51' E 119°24'4 8.6
2018-Jun-28 08:54N 24°54' E 119°27'4 8.8
2018-Jun-28 08:25N 24°56' E 119°30'469 9.8
2018-Jun-26 08:28N 30°49' E 125°20'  

Dump ship's entire track history